createdAt,value
2023-12-21T00:01:37.993Z,5.38
2023-12-21T00:04:06.328Z,5.36
2023-12-21T00:06:34.851Z,5.32
2023-12-21T00:09:02.903Z,5.14
2023-12-21T00:11:31.106Z,5.16
2023-12-21T00:14:00.573Z,5.15
2023-12-21T00:16:30.188Z,5.05
2023-12-21T00:18:58.843Z,5.05
2023-12-21T00:21:27.900Z,4.98
2023-12-21T00:23:55.851Z,4.86
2023-12-21T00:26:24.399Z,4.76
2023-12-21T00:28:52.367Z,4.68
2023-12-21T00:31:22.015Z,4.64
2023-12-21T00:33:49.981Z,4.61
2023-12-21T00:36:18.709Z,4.59
2023-12-21T00:38:46.715Z,4.55
2023-12-21T00:41:15.282Z,4.50
2023-12-21T00:43:43.282Z,4.37
2023-12-21T00:46:14.684Z,4.22
2023-12-21T00:48:42.946Z,4.18
2023-12-21T00:51:11.818Z,4.34
2023-12-21T00:53:39.844Z,4.35
2023-12-21T00:56:10.028Z,4.26
2023-12-21T00:58:38.169Z,4.12
2023-12-21T01:01:06.846Z,4.16
2023-12-21T01:03:35.039Z,4.14
2023-12-21T01:06:03.476Z,4.18
2023-12-21T01:08:31.497Z,4.24
2023-12-21T01:11:01.241Z,4.21
2023-12-21T01:13:29.293Z,4.13
2023-12-21T01:15:57.626Z,4.02
2023-12-21T01:18:25.766Z,4.02
2023-12-21T01:20:56.666Z,4.09
2023-12-21T01:23:24.583Z,3.99
2023-12-21T01:25:53.466Z,3.98
2023-12-21T01:28:21.497Z,3.94
2023-12-21T01:30:49.845Z,3.91
2023-12-21T01:33:18.020Z,3.98
2023-12-21T01:35:46.429Z,4.01
2023-12-21T01:38:14.808Z,3.96
2023-12-21T01:40:43.251Z,3.91
2023-12-21T01:43:11.488Z,3.86
2023-12-21T01:45:40.178Z,3.90
2023-12-21T01:48:09.948Z,3.94
2023-12-21T01:50:39.520Z,3.94
2023-12-21T01:53:10.906Z,3.89
2023-12-21T01:55:40.464Z,3.91
2023-12-21T01:58:13.815Z,3.94
2023-12-21T02:00:58.932Z,3.93
2023-12-21T02:03:28.100Z,3.78
2023-12-21T02:05:58.881Z,3.67
2023-12-21T02:08:27.777Z,3.73
2023-12-21T02:11:08.576Z,3.76
2023-12-21T02:13:37.603Z,3.76
2023-12-21T02:16:11.338Z,3.83
2023-12-21T02:18:40.175Z,3.86
2023-12-21T02:21:12.735Z,3.71
2023-12-21T02:23:44.231Z,3.78
2023-12-21T02:26:14.870Z,3.75
2023-12-21T02:28:44.447Z,3.75
2023-12-21T02:31:12.874Z,3.86
2023-12-21T02:33:40.990Z,3.92
2023-12-21T02:36:09.425Z,3.98
2023-12-21T02:38:37.441Z,3.99
2023-12-21T02:41:05.365Z,3.98
2023-12-21T02:43:33.919Z,3.93
2023-12-21T02:46:04.618Z,3.94
2023-12-21T02:48:33.911Z,3.99
2023-12-21T02:51:02.409Z,4.01
2023-12-21T02:53:30.614Z,4.03
2023-12-21T02:55:58.860Z,3.81
2023-12-21T02:58:27.337Z,3.92
2023-12-21T03:00:55.513Z,3.96
2023-12-21T03:03:23.949Z,3.98
2023-12-21T03:05:51.930Z,3.92
2023-12-21T03:08:20.302Z,4.02
2023-12-21T03:10:48.306Z,3.98
2023-12-21T03:13:16.963Z,3.92
2023-12-21T03:15:44.872Z,3.79
2023-12-21T03:18:13.789Z,3.77
2023-12-21T03:20:41.659Z,3.81
2023-12-21T03:23:12.680Z,3.60
2023-12-21T03:25:40.865Z,3.71
2023-12-21T03:28:11.452Z,3.73
2023-12-21T03:30:40.163Z,3.70
2023-12-21T03:33:08.283Z,3.69
2023-12-21T03:35:37.183Z,3.67
2023-12-21T03:38:05.344Z,3.67
2023-12-21T03:40:34.008Z,3.70
2023-12-21T03:43:02.366Z,3.64
2023-12-21T03:45:30.958Z,3.66
2023-12-21T03:47:59.329Z,3.67
2023-12-21T03:50:29.241Z,3.67
2023-12-21T03:52:57.400Z,3.70
2023-12-21T03:55:25.783Z,3.71
2023-12-21T03:57:55.072Z,3.62
2023-12-21T04:00:24.604Z,3.57
2023-12-21T04:02:52.832Z,3.54
2023-12-21T04:05:21.262Z,3.49
2023-12-21T04:07:49.600Z,3.48
2023-12-21T04:10:18.337Z,3.41
2023-12-21T04:12:47.125Z,3.40
2023-12-21T04:15:17.873Z,3.44
2023-12-21T04:17:46.042Z,3.17
2023-12-21T04:20:14.707Z,2.90
2023-12-21T04:22:43.045Z,2.87
2023-12-21T04:25:11.528Z,3.04
2023-12-21T04:27:39.667Z,3.14
2023-12-21T04:30:11.555Z,3.23
2023-12-21T04:32:39.744Z,3.27
2023-12-21T04:35:10.069Z,3.30
2023-12-21T04:37:38.213Z,3.32
2023-12-21T04:40:07.501Z,3.28
2023-12-21T04:42:37.708Z,3.05
2023-12-21T04:45:06.665Z,2.97
2023-12-21T04:47:34.836Z,2.92
2023-12-21T04:50:03.383Z,2.90
2023-12-21T04:52:32.191Z,3.11
2023-12-21T04:55:01.051Z,3.17
2023-12-21T04:57:32.969Z,3.32
2023-12-21T05:00:02.420Z,3.33
2023-12-21T05:02:35.675Z,3.27
2023-12-21T05:05:04.287Z,3.37
2023-12-21T05:07:32.892Z,3.35
2023-12-21T05:10:02.505Z,3.34
2023-12-21T05:12:31.630Z,3.41
2023-12-21T05:15:00.227Z,3.44
2023-12-21T05:17:28.960Z,3.51
2023-12-21T05:20:02.213Z,3.51
2023-12-21T05:22:32.639Z,3.49
2023-12-21T05:25:03.179Z,3.45
2023-12-21T05:27:32.652Z,3.42
2023-12-21T05:30:01.027Z,3.47
2023-12-21T05:32:32.517Z,3.48
2023-12-21T05:35:02.496Z,3.50
2023-12-21T05:37:31.956Z,3.39
2023-12-21T05:40:00.559Z,3.45
2023-12-21T05:42:28.618Z,3.55
2023-12-21T05:44:57.060Z,3.48
2023-12-21T05:47:25.169Z,3.62
2023-12-21T05:49:53.938Z,3.67
2023-12-21T05:52:21.880Z,3.72
2023-12-21T05:54:50.359Z,3.71
2023-12-21T05:57:18.467Z,3.80
2023-12-21T05:59:47.017Z,3.81
2023-12-21T06:02:15.142Z,3.83
2023-12-21T06:04:43.610Z,3.88
2023-12-21T06:07:12.038Z,3.94
2023-12-21T06:09:40.481Z,3.97
2023-12-21T06:12:08.804Z,4.02
2023-12-21T06:14:40.250Z,4.01
2023-12-21T06:17:08.757Z,4.05
2023-12-21T06:19:37.254Z,4.08
2023-12-21T06:22:07.124Z,4.08
2023-12-21T06:24:35.565Z,4.09
2023-12-21T06:27:04.020Z,4.10
2023-12-21T06:29:34.810Z,4.08
2023-12-21T06:32:03.955Z,4.09
2023-12-21T06:34:32.504Z,4.07
2023-12-21T06:37:02.521Z,4.04
2023-12-21T06:39:32.624Z,4.12
2023-12-21T06:42:00.555Z,4.17
2023-12-21T06:44:29.669Z,4.29
2023-12-21T06:46:58.206Z,4.33
2023-12-21T06:49:26.524Z,4.41
2023-12-21T06:51:54.612Z,4.52
2023-12-21T06:54:22.968Z,4.60
2023-12-21T06:56:50.997Z,4.57
2023-12-21T06:59:19.273Z,4.63
2023-12-21T07:01:47.471Z,4.82
2023-12-21T07:04:16.007Z,4.90
2023-12-21T07:06:44.185Z,4.96
2023-12-21T07:09:12.457Z,5.02
2023-12-21T07:11:40.442Z,5.02
2023-12-21T07:14:08.765Z,5.03
2023-12-21T07:16:37.442Z,5.11
2023-12-21T07:19:07.716Z,5.18
2023-12-21T07:21:36.700Z,5.24
2023-12-21T07:24:05.811Z,5.31
2023-12-21T07:26:35.128Z,5.34
2023-12-21T07:29:05.057Z,5.36
2023-12-21T07:31:33.046Z,5.43
2023-12-21T07:34:01.502Z,5.47
2023-12-21T07:36:29.418Z,5.52
2023-12-21T07:38:58.306Z,5.57
2023-12-21T07:41:26.641Z,5.65
2023-12-21T07:43:55.793Z,5.68
2023-12-21T07:46:26.115Z,5.74
2023-12-21T07:48:54.628Z,5.78
2023-12-21T07:51:22.647Z,5.82
2023-12-21T07:53:51.001Z,5.89
2023-12-21T07:56:19.262Z,5.93
2023-12-21T07:58:48.122Z,6.01
2023-12-21T08:01:16.551Z,6.00
2023-12-21T08:03:45.704Z,5.88
2023-12-21T08:06:23.762Z,5.98
2023-12-21T08:08:57.880Z,6.08
2023-12-21T08:11:29.386Z,6.13
2023-12-21T08:13:59.397Z,6.16
2023-12-21T08:16:27.490Z,6.23
2023-12-21T08:18:57.347Z,6.29
2023-12-21T08:21:25.872Z,6.37
2023-12-21T08:23:55.542Z,6.43
2023-12-21T08:26:23.647Z,6.46
2023-12-21T08:28:52.175Z,6.48
2023-12-21T08:31:29.725Z,6.53
2023-12-21T08:33:58.298Z,6.55
2023-12-21T08:36:26.536Z,6.59
2023-12-21T08:38:55.469Z,6.64
2023-12-21T08:41:26.356Z,6.64
2023-12-21T08:43:56.938Z,6.76
2023-12-21T08:46:26.233Z,6.80
2023-12-21T08:48:54.695Z,6.84
2023-12-21T08:51:23.893Z,6.83
2023-12-21T08:53:52.169Z,6.90
2023-12-21T08:56:20.488Z,6.82
2023-12-21T08:58:49.087Z,6.95
2023-12-21T09:01:17.517Z,6.99
2023-12-21T09:03:45.932Z,7.10
2023-12-21T09:06:14.175Z,7.16
2023-12-21T09:08:42.467Z,7.26
2023-12-21T09:11:10.450Z,7.32
2023-12-21T09:13:38.792Z,7.39
2023-12-21T09:16:07.094Z,7.45
2023-12-21T09:18:35.523Z,7.46
2023-12-21T09:21:05.153Z,7.48
2023-12-21T09:23:35.907Z,7.60
2023-12-21T09:26:04.967Z,7.64
2023-12-21T09:28:33.446Z,7.71
2023-12-21T09:31:01.809Z,7.83
2023-12-21T09:33:33.975Z,7.88
2023-12-21T09:36:02.696Z,7.96
2023-12-21T09:38:32.612Z,8.02
2023-12-21T09:41:01.042Z,8.14
2023-12-21T09:43:31.321Z,8.15
2023-12-21T09:46:00.299Z,8.22
2023-12-21T09:48:30.258Z,8.27
2023-12-21T09:51:04.096Z,8.33
2023-12-21T09:53:35.321Z,8.44
2023-12-21T09:56:05.733Z,8.57
2023-12-21T09:58:34.633Z,8.72
2023-12-21T10:01:02.923Z,8.86
2023-12-21T10:03:33.635Z,8.84
2023-12-21T10:06:05.086Z,8.74
2023-12-21T10:08:36.791Z,8.97
2023-12-21T10:11:07.942Z,9.08
2023-12-21T10:13:37.110Z,9.06
2023-12-21T10:16:05.639Z,9.10
2023-12-21T10:18:34.347Z,9.25
2023-12-21T10:21:04.093Z,9.33
2023-12-21T10:23:32.719Z,9.39
2023-12-21T10:26:04.107Z,9.46
2023-12-21T10:28:32.691Z,9.46
2023-12-21T10:31:05.651Z,9.50
2023-12-21T10:33:38.637Z,9.55
2023-12-21T10:36:06.966Z,9.66
2023-12-21T10:38:35.299Z,9.66
2023-12-21T10:41:08.211Z,9.73
2023-12-21T10:43:37.169Z,9.80
2023-12-21T10:46:06.159Z,9.82
2023-12-21T10:48:37.504Z,9.84
2023-12-21T10:51:06.204Z,9.88
2023-12-21T10:53:37.582Z,9.93
2023-12-21T10:56:07.353Z,9.86
2023-12-21T10:58:36.399Z,9.95
2023-12-21T11:01:07.713Z,10.00
2023-12-21T11:03:36.941Z,10.02
2023-12-21T11:06:05.400Z,10.02
2023-12-21T11:08:34.981Z,10.08
2023-12-21T11:11:04.924Z,10.06
2023-12-21T11:13:33.474Z,10.09
2023-12-21T11:16:02.692Z,10.09
2023-12-21T11:18:31.687Z,9.97
2023-12-21T11:21:02.229Z,9.93
2023-12-21T11:23:31.319Z,10.00
2023-12-21T11:26:00.638Z,10.06
2023-12-21T11:28:34.451Z,10.16
2023-12-21T11:31:16.164Z,10.21
2023-12-21T11:33:45.042Z,10.28
2023-12-21T11:36:24.606Z,10.30
2023-12-21T11:38:54.053Z,10.24
2023-12-21T11:41:26.065Z,10.14
2023-12-21T11:44:02.682Z,10.22
2023-12-21T11:46:34.519Z,10.20
2023-12-21T11:49:04.275Z,10.25
2023-12-21T11:51:33.027Z,10.31
2023-12-21T11:54:07.865Z,10.37
2023-12-21T11:56:37.121Z,10.38
2023-12-21T11:59:08.132Z,10.35
2023-12-21T12:01:36.494Z,10.39
2023-12-21T12:04:08.722Z,10.31
2023-12-21T12:06:39.556Z,10.31
2023-12-21T12:09:08.037Z,10.32
2023-12-21T12:11:36.451Z,10.34
2023-12-21T12:14:04.868Z,10.35
2023-12-21T12:16:33.866Z,10.38
2023-12-21T12:19:02.474Z,10.40
2023-12-21T12:21:32.014Z,10.39
2023-12-21T12:24:01.268Z,10.37
2023-12-21T12:26:29.686Z,10.35
2023-12-21T12:28:58.038Z,10.36
2023-12-21T12:31:27.727Z,10.39
2023-12-21T12:33:57.463Z,10.40
2023-12-21T12:36:25.461Z,10.42
2023-12-21T12:38:56.393Z,10.42
2023-12-21T12:41:25.979Z,10.44
2023-12-21T12:43:54.666Z,10.43
2023-12-21T12:46:23.159Z,10.39
2023-12-21T12:48:51.949Z,10.49
2023-12-21T12:51:20.944Z,10.49
2023-12-21T12:53:49.244Z,10.51
2023-12-21T12:56:17.335Z,10.49
2023-12-21T12:58:55.517Z,10.46
2023-12-21T13:01:29.067Z,10.43
2023-12-21T13:04:00.484Z,10.41
2023-12-21T13:06:30.426Z,10.32
2023-12-21T13:08:59.347Z,10.36
2023-12-21T13:11:31.607Z,10.32
2023-12-21T13:14:00.736Z,10.32
2023-12-21T13:16:28.770Z,10.34
2023-12-21T13:18:58.302Z,10.28
2023-12-21T13:21:26.653Z,10.30
2023-12-21T13:23:57.052Z,10.17
2023-12-21T13:26:25.211Z,10.21
2023-12-21T13:28:56.201Z,10.21
2023-12-21T13:31:26.024Z,10.11
2023-12-21T13:33:55.437Z,10.15
2023-12-21T13:36:24.218Z,10.10
2023-12-21T13:38:53.708Z,10.08
2023-12-21T13:41:21.573Z,10.07
2023-12-21T13:43:53.582Z,10.04
2023-12-21T13:46:23.501Z,9.99
2023-12-21T13:48:52.266Z,9.97
2023-12-21T13:51:20.320Z,9.76
2023-12-21T13:53:48.729Z,9.63
2023-12-21T13:56:16.734Z,9.69
2023-12-21T13:58:45.415Z,9.70
2023-12-21T14:01:13.576Z,9.76
2023-12-21T14:03:41.969Z,9.70
2023-12-21T14:06:10.317Z,9.69
2023-12-21T14:08:38.602Z,9.76
2023-12-21T14:11:06.993Z,9.74
2023-12-21T14:13:35.578Z,9.58
2023-12-21T14:16:04.198Z,9.60
2023-12-21T14:18:36.310Z,9.61
2023-12-21T14:21:04.511Z,9.55
2023-12-21T14:23:32.860Z,9.54
2023-12-21T14:26:01.463Z,9.47
2023-12-21T14:28:39.141Z,9.35
2023-12-21T14:31:11.816Z,9.31
2023-12-21T14:33:40.324Z,9.11
2023-12-21T14:36:08.771Z,9.15
2023-12-21T14:38:37.081Z,9.19
2023-12-21T14:41:05.298Z,9.32
2023-12-21T14:43:33.621Z,9.36
2023-12-21T14:46:02.238Z,9.32
2023-12-21T14:48:30.863Z,9.33
2023-12-21T14:50:59.456Z,9.31
2023-12-21T14:53:27.846Z,9.26
2023-12-21T14:55:56.240Z,9.23
2023-12-21T14:58:24.575Z,9.14
2023-12-21T15:00:52.821Z,8.83
2023-12-21T15:03:21.189Z,8.62
2023-12-21T15:05:50.137Z,8.77
2023-12-21T15:08:18.770Z,8.74
2023-12-21T15:10:47.220Z,8.41
2023-12-21T15:13:17.825Z,8.55
2023-12-21T15:15:49.584Z,8.65
2023-12-21T15:18:18.244Z,8.63
2023-12-21T15:20:46.222Z,8.63
2023-12-21T15:23:15.189Z,8.23
2023-12-21T15:25:43.606Z,8.13
2023-12-21T15:28:12.178Z,8.46
2023-12-21T15:30:40.549Z,8.49
2023-12-21T15:33:10.498Z,8.63
2023-12-21T15:35:41.818Z,8.49
2023-12-21T15:38:10.780Z,8.65
2023-12-21T15:40:41.274Z,8.76
2023-12-21T15:43:09.732Z,8.79
2023-12-21T15:45:38.472Z,8.82
2023-12-21T15:48:08.373Z,8.77
2023-12-21T15:50:36.529Z,8.55
2023-12-21T15:53:06.438Z,8.30
2023-12-21T15:55:36.224Z,8.42
2023-12-21T15:58:04.749Z,8.51
2023-12-21T16:00:32.712Z,8.40
2023-12-21T16:03:01.247Z,8.62
2023-12-21T16:05:29.661Z,8.68
2023-12-21T16:07:57.928Z,8.67
2023-12-21T16:10:26.098Z,8.82
2023-12-21T16:12:54.860Z,8.79
2023-12-21T16:15:28.961Z,8.88
2023-12-21T16:17:58.313Z,8.85
2023-12-21T16:20:26.293Z,8.48
2023-12-21T16:22:56.815Z,8.64
2023-12-21T16:25:24.841Z,8.40
2023-12-21T16:27:53.160Z,8.44
2023-12-21T16:30:21.806Z,8.36
2023-12-21T16:32:51.558Z,8.51
2023-12-21T16:35:19.863Z,8.64
2023-12-21T16:51:01.057Z,8.78
2023-12-21T17:10:19.221Z,8.56
2023-12-21T17:17:21.545Z,8.49
2023-12-21T17:20:16.026Z,8.31
2023-12-21T17:22:48.703Z,8.34
2023-12-21T17:25:19.390Z,8.18
2023-12-21T17:27:49.949Z,8.29
2023-12-21T17:30:26.351Z,8.08
2023-12-21T17:33:02.550Z,8.19
2023-12-21T17:35:33.763Z,8.08
2023-12-21T17:38:13.561Z,8.20
2023-12-21T17:40:43.721Z,8.25
2023-12-21T17:43:15.610Z,8.33
2023-12-21T17:45:48.119Z,8.30
2023-12-21T17:48:17.013Z,8.29
2023-12-21T17:50:45.422Z,8.31
2023-12-21T17:53:14.167Z,8.34
2023-12-21T17:55:43.415Z,8.33
2023-12-21T17:58:12.363Z,8.28
2023-12-21T18:00:40.542Z,8.12
2023-12-21T18:03:09.408Z,8.20
2023-12-21T18:05:37.347Z,8.16
2023-12-21T18:08:06.229Z,8.16
2023-12-21T18:10:34.425Z,8.14
2023-12-21T18:13:02.930Z,8.14
2023-12-21T18:15:31.005Z,8.08
2023-12-21T18:17:59.518Z,8.11
2023-12-21T18:20:27.690Z,8.20
2023-12-21T18:22:56.048Z,8.18
2023-12-21T18:25:24.530Z,8.19
2023-12-21T18:27:55.661Z,8.05
2023-12-21T18:30:24.285Z,7.79
2023-12-21T18:32:52.752Z,8.02
2023-12-21T18:35:21.331Z,8.02
2023-12-21T18:37:49.923Z,7.99
2023-12-21T18:40:19.314Z,8.05
2023-12-21T18:42:49.504Z,8.03
2023-12-21T18:45:17.497Z,8.05
2023-12-21T18:47:46.251Z,8.12
2023-12-21T18:50:14.566Z,8.04
2023-12-21T18:52:43.045Z,8.08
2023-12-21T18:55:11.291Z,8.04
2023-12-21T18:57:40.638Z,8.17
2023-12-21T19:00:10.563Z,8.23
2023-12-21T19:02:38.902Z,8.21
2023-12-21T19:05:08.354Z,8.17
2023-12-21T19:07:37.164Z,8.08
2023-12-21T19:10:07.826Z,8.02
2023-12-21T19:12:38.089Z,7.87
2023-12-21T19:15:07.104Z,7.99
2023-12-21T19:17:37.142Z,7.90
2023-12-21T19:20:05.757Z,7.84
2023-12-21T19:22:34.343Z,7.79
2023-12-21T19:25:02.456Z,7.72
2023-12-21T19:27:32.541Z,7.64
2023-12-21T19:30:00.663Z,7.23
2023-12-21T19:32:29.928Z,7.16
2023-12-21T19:34:58.157Z,6.91
2023-12-21T19:37:27.074Z,7.09
2023-12-21T19:39:55.098Z,7.11
2023-12-21T19:42:23.535Z,7.09
2023-12-21T19:44:51.594Z,7.37
2023-12-21T19:47:19.994Z,7.48
2023-12-21T19:49:48.000Z,7.63
2023-12-21T19:52:16.611Z,7.74
2023-12-21T19:54:44.625Z,7.78
2023-12-21T19:57:15.162Z,7.85
2023-12-21T19:59:43.480Z,7.85
2023-12-21T20:02:12.839Z,7.89
2023-12-21T20:04:41.628Z,7.81
2023-12-21T20:07:10.101Z,7.82
2023-12-21T20:09:40.049Z,7.91
2023-12-21T20:12:08.646Z,7.61
2023-12-21T20:14:36.616Z,7.40
2023-12-21T20:17:05.215Z,7.39
2023-12-21T20:19:33.589Z,7.67
2023-12-21T20:22:01.954Z,7.76
2023-12-21T20:24:30.821Z,7.76
2023-12-21T20:26:59.391Z,7.72
2023-12-21T20:29:27.240Z,7.90
2023-12-21T20:31:55.598Z,7.92
2023-12-21T20:34:24.600Z,8.00
2023-12-21T20:36:53.481Z,8.01
2023-12-21T20:39:21.509Z,8.00
2023-12-21T20:41:51.280Z,7.46
2023-12-21T20:44:19.943Z,7.36
2023-12-21T20:46:49.699Z,7.58
2023-12-21T20:49:18.009Z,7.67
2023-12-21T20:51:46.503Z,7.71
2023-12-21T20:54:14.767Z,7.74
2023-12-21T20:56:43.145Z,7.87
2023-12-21T20:59:11.307Z,7.79
2023-12-21T21:01:41.483Z,7.85
2023-12-21T21:04:09.612Z,7.77
2023-12-21T21:06:37.854Z,7.78
2023-12-21T21:09:10.150Z,7.68
2023-12-21T21:11:38.521Z,7.77
2023-12-21T21:14:06.575Z,7.95
2023-12-21T21:16:35.138Z,7.86
2023-12-21T21:19:04.409Z,8.00
2023-12-21T21:21:32.986Z,7.99
2023-12-21T21:24:03.576Z,8.13
2023-12-21T21:26:32.670Z,8.19
2023-12-21T21:29:01.637Z,7.59
2023-12-21T21:31:30.017Z,7.83
2023-12-21T21:33:58.175Z,7.92
2023-12-21T21:36:26.562Z,7.73
2023-12-21T21:38:54.582Z,7.71
2023-12-21T21:41:23.091Z,7.39
2023-12-21T21:43:52.277Z,7.51
2023-12-21T21:46:22.895Z,7.83
2023-12-21T21:48:51.590Z,7.60
2023-12-21T21:51:20.191Z,7.70
2023-12-21T21:53:48.250Z,8.01
2023-12-21T21:56:20.183Z,7.94
2023-12-21T21:58:48.562Z,7.98
2023-12-21T22:01:16.956Z,8.00
2023-12-21T22:03:45.715Z,8.14
2023-12-21T22:06:14.105Z,8.18
2023-12-21T22:08:42.480Z,8.17
2023-12-21T22:11:11.618Z,8.18
2023-12-21T22:13:40.349Z,8.27
2023-12-21T22:16:08.675Z,8.37
2023-12-21T22:18:36.847Z,8.47
2023-12-21T22:21:05.431Z,8.31
2023-12-21T22:23:33.630Z,8.44
2023-12-21T22:26:06.344Z,8.54
2023-12-21T22:28:35.762Z,8.54
2023-12-21T22:31:05.088Z,8.56
2023-12-21T22:33:33.334Z,8.57
2023-12-21T22:36:01.713Z,8.44
2023-12-21T22:38:30.277Z,8.47
2023-12-21T22:40:58.730Z,8.44
2023-12-21T22:43:34.998Z,8.46
2023-12-21T22:46:11.609Z,8.51
2023-12-21T22:48:40.450Z,8.54
2023-12-21T22:51:09.006Z,8.59
2023-12-21T22:53:38.216Z,8.41
2023-12-21T22:56:06.829Z,8.23
2023-12-21T22:58:36.176Z,8.26
2023-12-21T23:01:04.687Z,7.81
2023-12-21T23:03:32.931Z,8.20
2023-12-21T23:06:01.353Z,8.36
2023-12-21T23:08:29.522Z,8.45
2023-12-21T23:10:57.924Z,8.47
2023-12-21T23:13:29.702Z,8.39
2023-12-21T23:15:58.861Z,8.50
2023-12-21T23:18:27.162Z,8.52
2023-12-21T23:20:57.010Z,8.53
2023-12-21T23:23:25.087Z,8.54
2023-12-21T23:25:53.707Z,8.52
2023-12-21T23:28:24.029Z,8.57
2023-12-21T23:30:53.563Z,8.60
2023-12-21T23:33:23.111Z,8.68
2023-12-21T23:35:52.250Z,8.72
2023-12-21T23:38:20.789Z,8.66
2023-12-21T23:40:49.526Z,8.70
2023-12-21T23:43:17.494Z,8.70
2023-12-21T23:45:46.037Z,8.77
2023-12-21T23:48:14.135Z,8.54
2023-12-21T23:50:43.006Z,8.62
2023-12-21T23:53:11.812Z,8.71
2023-12-21T23:55:40.690Z,8.66
2023-12-21T23:58:08.844Z,8.47
